Mid Calder, United Kingdom
Current Conditions -  °F | °C
As of 2:50 AM on Friday 19 Dec 2014 (Local Time) from EGPH Reporting Station
Light Rain Light Rain  
Wind Chill: 30°   Ceiling: 3000
Heat Index: 39°   Visibility: 6mi
Dew Point: 37°   Wind: 18mph
Humidity: 93%   Direction: 240°WSW
Pressure: 29.47"   Gusts: NA
Location:  55.89°N, 3.48°W
Report Text: EGPH 190250Z 24016KT 9999 -RA FEW010 BKN030 04/03 Q0998
Loading
Personal Weather Stations






























Interactive Weather Map New forecast layout! Learn more

10-Day Weather Forecast

Advertisements
Track Severe Weather on mobile